Time;durP1;ratioP1;P1;durP2;ratioP2;P2;SDS_P1;SDS_P2;PMS_P1;PMS_P2;Temp;Humidity;BMP_temperature;BMP_pressure;BME280_temperature;BME280_humidity;BME280_pressure;Samples;Min_cycle;Max_cycle;Signal;HPM_P1;HPM_P2
2022/10/13 00:00:39;;;;;;;23.17;19.17;;;;;;;6.95;100.00;100654.94;5006438;28;20235;-67
2022/10/13 00:03:05;;;;;;;24.77;19.17;;;;;;;6.95;100.00;100654.94;5013394;28;20182;-67
2022/10/13 00:05:30;;;;;;;27.30;18.97;;;;;;;6.88;100.00;100650.06;5014278;28;20703;-67
2022/10/13 00:07:56;;;;;;;29.07;19.30;;;;;;;6.86;100.00;100655.22;5012647;28;20697;-66
2022/10/13 00:10:23;;;;;;;28.20;18.80;;;;;;;6.77;100.00;100652.94;5003752;28;21255;-68
2022/10/13 00:12:48;;;;;;;22.80;17.83;;;;;;;6.53;100.00;100650.22;5010479;28;20581;-67
2022/10/13 00:15:13;;;;;;;25.57;18.80;;;;;;;6.56;100.00;100647.59;5010809;28;20220;-66
2022/10/13 00:17:40;;;;;;;29.93;19.60;;;;;;;6.60;100.00;100638.13;5007085;28;20177;-68
2022/10/13 00:20:07;;;;;;;23.80;18.60;;;;;;;6.67;100.00;100641.31;5003255;28;20189;-67
2022/10/13 00:22:32;;;;;;;26.67;18.33;;;;;;;6.65;100.00;100643.91;5028817;28;20185;-66
2022/10/13 00:24:58;;;;;;;26.40;18.43;;;;;;;6.60;100.00;100646.59;5013623;28;20707;-66
2022/10/13 00:27:23;;;;;;;27.07;20.50;;;;;;;6.63;100.00;100654.16;5012905;28;20239;-66
2022/10/13 00:29:48;;;;;;;23.87;18.20;;;;;;;6.59;100.00;100652.59;5014253;28;20589;-66
2022/10/13 00:32:13;;;;;;;22.13;17.93;;;;;;;6.42;100.00;100647.97;5019088;28;20232;-66
2022/10/13 00:34:39;;;;;;;28.00;19.07;;;;;;;6.42;100.00;100649.69;5013959;28;20220;-68
2022/10/13 00:37:04;;;;;;;24.13;18.83;;;;;;;6.54;100.00;100648.50;5014144;28;20188;-68
2022/10/13 00:39:30;;;;;;;26.83;18.37;;;;;;;6.44;100.00;100643.66;5013598;28;20232;-66
2022/10/13 00:41:57;;;;;;;27.53;20.47;;;;;;;6.56;100.00;100651.84;4994061;28;20728;-67
2022/10/13 00:45:00;;;;;;;28.60;20.97;;;;;;;6.35;100.00;100640.53;5009963;28;20549;-67
2022/10/13 00:47:29;;;;;;;29.37;19.70;;;;;;;6.57;100.00;100640.75;5013622;28;20225;-66
2022/10/13 00:49:55;;;;;;;30.13;19.93;;;;;;;6.59;100.00;100634.69;5012298;28;20633;-66
2022/10/13 00:52:22;;;;;;;27.37;20.83;;;;;;;6.40;100.00;100636.97;5018895;28;20222;-66
2022/10/13 00:54:48;;;;;;;24.43;19.83;;;;;;;6.40;100.00;100631.00;5011919;28;20320;-66
2022/10/13 00:57:14;;;;;;;36.90;22.10;;;;;;;6.32;100.00;100628.66;5012440;28;20195;-68
2022/10/13 00:59:40;;;;;;;29.50;20.77;;;;;;;6.52;100.00;100624.72;5013412;28;20181;-66
2022/10/13 01:02:07;;;;;;;26.97;19.77;;;;;;;6.56;100.00;100626.28;5004212;28;20223;-66
2022/10/13 01:04:38;;;;;;;28.33;20.17;;;;;;;6.56;100.00;100628.84;5007441;28;20201;-66
2022/10/13 01:07:05;;;;;;;25.37;19.57;;;;;;;6.73;100.00;100629.16;5012217;28;20290;-66
2022/10/13 01:09:36;;;;;;;31.53;19.40;;;;;;;6.72;100.00;100629.22;5008193;28;20251;-67
2022/10/13 01:12:09;;;;;;;25.10;18.57;;;;;;;6.86;100.00;100629.66;5017148;28;20227;-66
2022/10/13 01:14:41;;;;;;;27.27;19.73;;;;;;;6.83;100.00;100632.28;5006148;28;20240;-67
2022/10/13 01:17:17;;;;;;;26.50;18.50;;;;;;;6.90;100.00;100630.41;4999627;28;20247;-65
2022/10/13 01:20:08;;;;;;;31.37;20.97;;;;;;;6.86;100.00;100629.66;5012228;28;20177;-66
2022/10/13 01:22:36;;;;;;;27.80;20.17;;;;;;;7.01;100.00;100632.59;4982543;28;20228;-66
2022/10/13 01:25:17;;;;;;;28.27;20.77;;;;;;;6.88;100.00;100632.97;5004087;28;20190;-66
2022/10/13 01:27:52;;;;;;;30.57;20.43;;;;;;;6.98;100.00;100630.97;5011902;28;20217;-66
2022/10/13 01:30:20;;;;;;;23.60;18.43;;;;;;;6.99;100.00;100627.53;5005211;28;20701;-66
2022/10/13 01:32:56;;;;;;;27.53;20.17;;;;;;;7.10;100.00;100630.59;5011878;28;20538;-66
2022/10/13 01:35:39;;;;;;;23.17;18.70;;;;;;;7.17;100.00;100626.13;5011258;28;20187;-66
2022/10/13 01:38:25;;;;;;;23.23;17.87;;;;;;;7.15;100.00;100629.63;5001007;28;20182;-66
2022/10/13 01:41:16;;;;;;;26.47;18.33;;;;;;;7.11;100.00;100616.09;5004669;28;20360;-66
2022/10/13 01:43:50;;;;;;;26.83;17.30;;;;;;;7.16;100.00;100619.34;5011387;28;20193;-70
2022/10/13 01:46:32;;;;;;;21.30;17.83;;;;;;;7.12;100.00;100622.91;5010760;28;20229;-66
2022/10/13 01:49:00;;;;;;;20.73;17.17;;;;;;;7.18;100.00;100620.16;5011653;28;20182;-65
2022/10/13 01:51:29;;;;;;;20.33;15.53;;;;;;;7.17;100.00;100623.59;5004343;28;20226;-66
2022/10/13 01:53:54;;;;;;;18.93;16.13;;;;;;;7.23;100.00;100625.09;5011295;28;20274;-66
2022/10/13 01:56:23;;;;;;;18.50;15.60;;;;;;;7.24;100.00;100624.22;5012182;28;20657;-66
2022/10/13 01:58:51;;;;;;;17.83;15.00;;;;;;;7.26;100.00;100625.81;5011274;28;20269;-65
2022/10/13 02:01:34;;;;;;;17.27;15.20;;;;;;;7.13;100.00;100616.03;5004474;28;20235;-66
2022/10/13 02:04:38;;;;;;;19.13;15.23;;;;;;;7.11;100.00;100611.81;5010760;28;20202;-68
2022/10/13 02:07:15;;;;;;;18.63;14.27;;;;;;;7.08;100.00;100606.81;5012289;28;20213;-68
2022/10/13 02:10:18;;;;;;;17.17;15.37;;;;;;;7.09;100.00;100607.63;5011877;28;20174;-66
2022/10/13 02:13:03;;;;;;;17.10;14.37;;;;;;;6.96;100.00;100607.19;4984985;28;20256;-65
2022/10/13 02:15:36;;;;;;;16.07;13.37;;;;;;;7.07;100.00;100607.69;4994845;28;20193;-66
2022/10/13 02:18:03;;;;;;;18.10;15.87;;;;;;;6.95;100.00;100601.22;5002185;28;20189;-66
2022/10/13 02:20:29;;;;;;;19.60;14.73;;;;;;;6.99;100.00;100601.13;5004116;28;20731;-66
2022/10/13 02:23:01;;;;;;;18.77;15.27;;;;;;;6.91;100.00;100599.66;5010999;28;20189;-66
2022/10/13 02:25:27;;;;;;;15.33;13.70;;;;;;;6.87;100.00;100599.78;5010558;28;20185;-65
2022/10/13 02:27:53;;;;;;;16.27;14.53;;;;;;;7.10;100.00;100596.50;5012216;28;20198;-65
2022/10/13 02:30:21;;;;;;;17.70;14.63;;;;;;;6.99;100.00;100598.59;5003017;28;20828;-66
2022/10/13 02:32:46;;;;;;;16.17;14.13;;;;;;;6.99;100.00;100589.19;5025266;28;20182;-66
2022/10/13 02:35:12;;;;;;;16.93;14.50;;;;;;;6.85;100.00;100583.69;5010686;28;20189;-66
2022/10/13 02:37:37;;;;;;;16.07;14.27;;;;;;;6.85;100.00;100586.22;5010908;28;20174;-66
2022/10/13 02:40:03;;;;;;;17.13;14.43;;;;;;;6.78;100.00;100577.91;5006908;28;20199;-66
2022/10/13 02:42:28;;;;;;;17.97;14.63;;;;;;;6.86;100.00;100591.28;5008897;28;20190;-66
2022/10/13 02:44:53;;;;;;;19.13;14.57;;;;;;;7.01;100.00;100591.69;5010392;28;20201;-65
2022/10/13 02:47:19;;;;;;;15.90;13.63;;;;;;;7.15;100.00;100598.94;5012342;28;20649;-66
2022/10/13 02:49:44;;;;;;;18.07;13.80;;;;;;;7.26;100.00;100590.00;5015429;28;20187;-66
2022/10/13 02:52:09;;;;;;;14.87;13.37;;;;;;;7.31;100.00;100594.16;5013883;28;20235;-66
2022/10/13 02:54:35;;;;;;;15.70;14.10;;;;;;;7.39;100.00;100590.44;5009604;28;20175;-66
2022/10/13 02:57:00;;;;;;;19.47;14.97;;;;;;;7.47;100.00;100586.78;5012079;28;20268;-65
2022/10/13 02:59:25;;;;;;;16.70;13.57;;;;;;;7.31;100.00;100589.03;5011881;28;20559;-64
2022/10/13 03:01:50;;;;;;;18.67;14.37;;;;;;;7.56;100.00;100584.75;4962572;28;20222;-66
2022/10/13 03:04:16;;;;;;;16.40;14.40;;;;;;;7.49;100.00;100578.19;5001099;28;20198;-65
2022/10/13 03:06:41;;;;;;;18.57;15.00;;;;;;;7.44;100.00;100577.47;5011821;28;20637;-67
2022/10/13 03:09:06;;;;;;;16.67;14.37;;;;;;;7.35;100.00;100570.94;5010464;28;20190;-65
2022/10/13 03:11:32;;;;;;;24.97;15.57;;;;;;;7.32;100.00;100577.88;4997271;28;20222;-65
2022/10/13 03:13:57;;;;;;;19.63;14.80;;;;;;;7.53;100.00;100577.19;5014900;28;20186;-70
2022/10/13 03:16:22;;;;;;;17.60;14.73;;;;;;;7.56;100.00;100574.50;5011890;28;20233;-64
2022/10/13 03:18:47;;;;;;;18.67;14.20;;;;;;;7.70;100.00;100571.47;5016956;28;20676;-65
2022/10/13 03:21:13;;;;;;;16.67;14.50;;;;;;;7.86;100.00;100564.09;5011014;28;20249;-65
2022/10/13 03:23:38;;;;;;;21.23;15.97;;;;;;;7.97;100.00;100560.31;5013066;28;20183;-69
2022/10/13 03:26:04;;;;;;;18.50;15.37;;;;;;;8.09;100.00;100564.97;5013407;28;20795;-67
2022/10/13 03:28:29;;;;;;;19.10;14.87;;;;;;;8.00;100.00;100557.63;5015165;28;20203;-65
2022/10/13 03:31:02;;;;;;;25.30;15.30;;;;;;;7.99;100.00;100559.34;4991106;28;20229;-66
2022/10/13 03:33:27;;;;;;;16.67;14.97;;;;;;;8.07;100.00;100553.94;5013882;28;20252;-65
2022/10/13 03:35:52;;;;;;;18.17;15.20;;;;;;;8.20;100.00;100557.72;5014685;28;20175;-65
2022/10/13 03:38:18;;;;;;;15.40;13.87;;;;;;;8.22;100.00;100560.22;5013639;28;20581;-65
2022/10/13 03:40:43;;;;;;;21.80;15.37;;;;;;;8.31;100.00;100571.84;5006447;28;20225;-65
2022/10/13 03:43:08;;;;;;;18.17;14.13;;;;;;;8.31;100.00;100567.59;5025205;28;20185;-65
2022/10/13 03:45:33;;;;;;;21.13;15.47;;;;;;;8.36;100.00;100560.56;5012963;28;20805;-65
2022/10/13 03:47:59;;;;;;;17.40;14.73;;;;;;;8.37;100.00;100569.91;5013111;28;20206;-66
2022/10/13 03:50:24;;;;;;;15.37;13.63;;;;;;;8.36;100.00;100565.69;5007627;28;20728;-66
2022/10/13 03:52:49;;;;;;;20.47;14.37;;;;;;;8.44;100.00;100573.06;5027260;28;20225;-67
2022/10/13 03:55:14;;;;;;;15.57;13.07;;;;;;;8.56;100.00;100572.63;5014377;28;20196;-67
2022/10/13 03:57:40;;;;;;;16.50;13.33;;;;;;;8.59;100.00;100571.69;5014325;28;20182;-66
2022/10/13 04:00:09;;;;;;;13.97;12.47;;;;;;;8.54;100.00;100568.47;5003443;28;20200;-66
2022/10/13 04:02:34;;;;;;;15.20;13.43;;;;;;;8.44;100.00;100570.50;5018504;28;20214;-67
2022/10/13 04:05:00;;;;;;;15.43;13.40;;;;;;;8.32;100.00;100581.22;5014496;28;20629;-66
2022/10/13 04:07:25;;;;;;;16.93;12.93;;;;;;;8.08;100.00;100571.00;5014424;28;20202;-65
2022/10/13 04:09:51;;;;;;;14.57;12.70;;;;;;;8.16;100.00;100569.00;5014334;28;20601;-66
2022/10/13 04:12:16;;;;;;;15.03;12.57;;;;;;;8.28;100.00;100574.56;5019466;28;20635;-66
2022/10/13 04:14:41;;;;;;;19.43;13.03;;;;;;;8.33;100.00;100573.47;5013699;28;20183;-65
2022/10/13 04:17:06;;;;;;;14.50;13.00;;;;;;;8.34;100.00;100574.31;5000429;28;20183;-65
2022/10/13 04:19:32;;;;;;;15.03;13.47;;;;;;;8.16;100.00;100576.69;5014411;28;20187;-65
2022/10/13 04:21:57;;;;;;;16.00;13.43;;;;;;;8.11;100.00;100573.44;5005936;28;20267;-73
2022/10/13 04:24:22;;;;;;;15.27;13.50;;;;;;;8.06;100.00;100576.19;5012227;28;20178;-65
2022/10/13 04:26:47;;;;;;;16.07;13.23;;;;;;;7.84;100.00;100571.00;5012395;28;20186;-65
2022/10/13 04:29:13;;;;;;;16.70;13.10;;;;;;;8.02;100.00;100577.16;5014083;28;20174;-65
2022/10/13 04:31:41;;;;;;;15.27;13.23;;;;;;;7.88;100.00;100572.53;5016088;28;20237;-66
2022/10/13 04:34:07;;;;;;;17.97;12.80;;;;;;;7.74;100.00;100575.59;5011378;28;20184;-66
2022/10/13 04:36:32;;;;;;;16.43;14.27;;;;;;;7.79;100.00;100566.91;5012541;28;20179;-65
2022/10/13 04:38:57;;;;;;;16.43;13.73;;;;;;;7.62;100.00;100573.47;5012148;28;20203;-65
2022/10/13 04:41:23;;;;;;;17.70;13.40;;;;;;;7.85;100.00;100577.78;5005280;28;20256;-65
2022/10/13 04:43:49;;;;;;;14.63;13.07;;;;;;;7.81;100.00;100576.19;5018791;28;20191;-65
2022/10/13 04:46:18;;;;;;;14.20;12.73;;;;;;;7.98;100.00;100573.06;5012812;28;20589;-66
2022/10/13 04:48:44;;;;;;;19.50;14.93;;;;;;;8.14;100.00;100577.63;5012240;28;20298;-65
2022/10/13 04:51:16;;;;;;;16.70;14.37;;;;;;;8.24;100.00;100568.69;5005144;28;20724;-67
2022/10/13 04:53:41;;;;;;;15.97;14.27;;;;;;;8.12;100.00;100562.28;5011704;28;20182;-69
2022/10/13 04:56:12;;;;;;;17.07;13.93;;;;;;;8.12;100.00;100564.03;5012849;28;20183;-66
2022/10/13 04:58:39;;;;;;;17.47;14.57;;;;;;;8.24;100.00;100559.28;5014145;28;20182;-64
2022/10/13 05:01:06;;;;;;;20.70;15.93;;;;;;;8.36;100.00;100552.84;5000854;28;20246;-67
2022/10/13 05:03:33;;;;;;;17.37;13.90;;;;;;;8.20;100.00;100546.66;5012082;28;20240;-65
2022/10/13 05:05:59;;;;;;;19.63;15.00;;;;;;;8.36;100.00;100534.91;5011111;28;20269;-65
2022/10/13 05:08:24;;;;;;;18.00;14.07;;;;;;;8.19;100.00;100529.59;5012836;28;20653;-66
2022/10/13 05:10:57;;;;;;;18.17;14.87;;;;;;;8.14;100.00;100534.91;5009208;28;20238;-66
2022/10/13 05:13:24;;;;;;;20.40;16.93;;;;;;;7.97;100.00;100520.13;5012072;28;20182;-65
2022/10/13 05:15:49;;;;;;;44.90;27.30;;;;;;;8.00;100.00;100521.75;5004602;28;20179;-65
2022/10/13 05:18:15;;;;;;;23.73;17.57;;;;;;;8.03;100.00;100521.66;5005683;28;20208;-66
2022/10/13 05:20:40;;;;;;;22.57;16.77;;;;;;;8.17;100.00;100527.06;5004580;28;20221;-66
2022/10/13 05:23:05;;;;;;;25.83;17.03;;;;;;;8.19;100.00;100517.59;5011598;28;20197;-66
2022/10/13 05:25:32;;;;;;;20.83;17.83;;;;;;;8.31;100.00;100515.47;5011201;28;20201;-66
2022/10/13 05:27:58;;;;;;;23.73;17.73;;;;;;;8.33;100.00;100521.38;5011276;28;20277;-73
2022/10/13 05:30:23;;;;;;;18.47;16.47;;;;;;;8.38;100.00;100519.47;5004127;28;20229;-65
2022/10/13 05:32:48;;;;;;;22.83;16.20;;;;;;;8.35;100.00;100511.91;5011776;28;20221;-65
2022/10/13 05:35:14;;;;;;;20.07;16.13;;;;;;;8.32;100.00;100507.75;5012125;28;20174;-66
2022/10/13 05:37:39;;;;;;;18.07;15.77;;;;;;;8.40;100.00;100510.81;5012375;28;20893;-65
2022/10/13 05:40:05;;;;;;;26.23;16.90;;;;;;;8.38;100.00;100517.75;5001260;28;20202;-65
2022/10/13 05:42:30;;;;;;;24.63;16.50;;;;;;;8.39;100.00;100521.16;5027242;28;20181;-66
2022/10/13 05:44:56;;;;;;;20.63;15.57;;;;;;;8.36;100.00;100518.69;5009753;28;20184;-65
2022/10/13 05:47:25;;;;;;;18.97;15.47;;;;;;;8.39;100.00;100516.00;5010876;28;20217;-65
2022/10/13 05:49:51;;;;;;;20.17;15.90;;;;;;;8.41;100.00;100519.38;5012253;28;20167;-66
2022/10/13 05:52:16;;;;;;;19.67;15.73;;;;;;;8.41;100.00;100529.63;5000520;28;20236;-65
2022/10/13 05:54:46;;;;;;;20.03;15.67;;;;;;;8.42;100.00;100531.25;5009472;28;20171;-65
2022/10/13 05:57:34;;;;;;;20.27;15.90;;;;;;;8.37;100.00;100538.31;5016718;28;20180;-65
2022/10/13 06:00:07;;;;;;;21.33;15.53;;;;;;;8.49;100.00;100540.44;5022439;28;20182;-67
2022/10/13 06:02:59;;;;;;;20.60;16.27;;;;;;;8.55;100.00;100540.19;5000984;28;20325;-65
2022/10/13 06:05:26;;;;;;;20.07;15.33;;;;;;;8.49;100.00;100534.47;5010048;28;20195;-65
2022/10/13 06:07:54;;;;;;;16.20;14.50;;;;;;;8.53;100.00;100546.28;5010672;28;20190;-66
2022/10/13 06:10:20;;;;;;;19.37;14.47;;;;;;;8.51;100.00;100545.53;5002848;28;20265;-67
2022/10/13 06:12:45;;;;;;;22.73;16.37;;;;;;;8.56;100.00;100547.00;5010910;28;20262;-66
2022/10/13 06:15:11;;;;;;;20.07;15.07;;;;;;;8.68;100.00;100552.53;5010056;28;20199;-65
2022/10/13 06:17:37;;;;;;;21.90;16.07;;;;;;;8.64;100.00;100535.59;4998801;28;20198;-66
2022/10/13 06:20:05;;;;;;;21.93;15.90;;;;;;;8.67;100.00;100530.34;5004018;28;20170;-66
2022/10/13 06:22:31;;;;;;;21.63;15.83;;;;;;;8.76;100.00;100530.00;5026751;28;20206;-67
2022/10/13 06:24:57;;;;;;;25.23;16.53;;;;;;;8.74;100.00;100531.78;5010363;28;20538;-65
2022/10/13 06:27:22;;;;;;;18.07;16.07;;;;;;;8.85;100.00;100531.34;5012002;28;20199;-66
2022/10/13 06:29:47;;;;;;;17.47;15.63;;;;;;;8.75;100.00;100530.06;5012130;28;20186;-66
2022/10/13 06:32:12;;;;;;;16.70;14.73;;;;;;;8.76;100.00;100524.00;5002415;28;20225;-66
2022/10/13 06:34:38;;;;;;;18.80;15.37;;;;;;;8.93;100.00;100513.91;5011577;28;20603;-66
2022/10/13 06:37:03;;;;;;;18.73;14.80;;;;;;;9.06;100.00;100531.38;5011845;28;20190;-66
2022/10/13 06:39:28;;;;;;;21.33;16.50;;;;;;;9.16;100.00;100536.03;5011733;28;20260;-66
2022/10/13 06:41:54;;;;;;;18.17;15.87;;;;;;;9.10;100.00;100525.22;5004041;28;20327;-65
2022/10/13 06:44:19;;;;;;;21.03;15.50;;;;;;;9.18;100.00;100533.44;5004772;28;20834;-66
2022/10/13 06:46:44;;;;;;;19.77;15.67;;;;;;;9.33;100.00;100531.94;4998474;28;20238;-66
2022/10/13 06:49:10;;;;;;;19.80;15.70;;;;;;;9.45;100.00;100543.41;4997876;28;20187;-66
2022/10/13 06:51:35;;;;;;;17.43;15.40;;;;;;;9.50;100.00;100534.63;4996552;28;20226;-69
2022/10/13 06:54:00;;;;;;;17.30;15.30;;;;;;;9.46;100.00;100529.69;5008322;28;20653;-66
2022/10/13 06:56:28;;;;;;;19.20;15.40;;;;;;;9.55;100.00;100524.16;5015320;28;20179;-66
2022/10/13 06:58:53;;;;;;;18.70;15.23;;;;;;;9.65;100.00;100515.16;5002654;28;20294;-66
2022/10/13 07:01:19;;;;;;;16.53;13.63;;;;;;;9.77;100.00;100528.34;4978557;28;20214;-65
2022/10/13 07:03:48;;;;;;;18.73;15.13;;;;;;;9.84;100.00;100529.75;5001680;28;20176;-66
2022/10/13 07:06:13;;;;;;;19.77;14.13;;;;;;;10.02;100.00;100530.63;4995546;28;20175;-65
2022/10/13 07:08:39;;;;;;;15.23;13.03;;;;;;;10.20;100.00;100528.97;5007110;28;20221;-66
2022/10/13 07:11:06;;;;;;;16.80;13.00;;;;;;;10.28;100.00;100536.31;4991680;28;20226;-68
2022/10/13 07:13:31;;;;;;;17.10;13.17;;;;;;;10.03;100.00;100524.59;4995696;28;20206;-66
2022/10/13 07:15:57;;;;;;;18.60;14.53;;;;;;;10.08;100.00;100516.69;4993282;28;20656;-65
2022/10/13 07:18:22;;;;;;;18.77;13.03;;;;;;;10.13;100.00;100514.72;5008772;28;20183;-66
2022/10/13 07:20:47;;;;;;;19.17;13.03;;;;;;;9.78;100.00;100520.56;4993364;28;20281;-65
2022/10/13 07:23:13;;;;;;;17.40;13.50;;;;;;;9.91;100.00;100517.44;4994146;28;20662;-65
2022/10/13 07:25:38;;;;;;;18.40;13.67;;;;;;;9.85;100.00;100521.97;4997206;28;20175;-65
2022/10/13 07:28:03;;;;;;;16.50;14.20;;;;;;;10.12;100.00;100513.06;4995481;28;20282;-66
2022/10/13 07:30:28;;;;;;;15.87;13.90;;;;;;;9.99;100.00;100518.75;4971144;28;20222;-66
2022/10/13 07:32:54;;;;;;;17.67;13.50;;;;;;;9.96;100.00;100508.63;4997467;28;20651;-67
2022/10/13 07:35:20;;;;;;;19.93;14.50;;;;;;;10.05;100.00;100509.09;4997599;28;20261;-64
2022/10/13 07:37:45;;;;;;;20.63;14.07;;;;;;;10.24;100.00;100506.53;5007137;28;20191;-66
2022/10/13 07:40:11;;;;;;;19.77;13.50;;;;;;;10.23;100.00;100502.28;4990901;28;20214;-65
2022/10/13 07:42:36;;;;;;;17.87;14.43;;;;;;;10.37;100.00;100501.66;4996364;28;20190;-66
2022/10/13 07:45:02;;;;;;;18.20;13.83;;;;;;;10.49;100.00;100511.38;5011702;28;20676;-65
2022/10/13 07:47:28;;;;;;;24.73;16.07;;;;;;;10.56;100.00;100512.75;5015101;28;20207;-64
2022/10/13 07:49:54;;;;;;;21.10;14.90;;;;;;;10.76;100.00;100516.09;5014798;28;20587;-65
2022/10/13 07:52:19;;;;;;;17.97;14.77;;;;;;;10.76;100.00;100516.09;5020129;28;20226;-65
2022/10/13 07:54:45;;;;;;;17.93;14.40;;;;;;;10.97;100.00;100514.22;5018404;28;20266;-65
2022/10/13 07:57:10;;;;;;;18.50;14.83;;;;;;;11.19;100.00;100513.97;5012634;28;20597;-67
2022/10/13 07:59:35;;;;;;;21.80;14.20;;;;;;;11.23;100.00;100512.09;5014457;28;20224;-66
2022/10/13 08:02:01;;;;;;;16.73;13.93;;;;;;;11.14;100.00;100519.34;5000528;28;20298;-66
2022/10/13 08:04:30;;;;;;;20.03;13.10;;;;;;;11.24;100.00;100514.56;5005921;28;20186;-65
2022/10/13 08:06:57;;;;;;;21.73;14.80;;;;;;;11.07;100.00;100514.59;5012807;28;20600;-66
2022/10/13 08:09:23;;;;;;;20.93;14.03;;;;;;;11.11;100.00;100521.25;5012336;28;20175;-67
2022/10/13 08:11:48;;;;;;;18.17;13.53;;;;;;;11.16;100.00;100515.88;4989601;28;20325;-68
2022/10/13 08:14:13;;;;;;;21.13;14.57;;;;;;;11.04;100.00;100507.00;5004540;28;20270;-66
2022/10/13 08:16:40;;;;;;;25.07;14.27;;;;;;;10.70;100.00;100499.22;5002329;28;20654;-67
2022/10/13 08:19:06;;;;;;;22.90;13.53;;;;;;;11.02;100.00;100493.41;4994457;28;20840;-67
2022/10/13 08:21:31;;;;;;;21.63;14.43;;;;;;;11.29;100.00;100492.00;5000696;28;20222;-67
2022/10/13 08:23:56;;;;;;;17.70;14.73;;;;;;;11.24;100.00;100485.44;5008741;28;20281;-67
2022/10/13 08:26:25;;;;;;;21.60;14.73;;;;;;;11.58;100.00;100474.19;5000328;28;20188;-67
2022/10/13 08:28:51;;;;;;;21.07;16.03;;;;;;;11.38;100.00;100485.53;4999914;28;20755;-67
2022/10/13 08:31:16;;;;;;;20.27;15.60;;;;;;;11.34;100.00;100496.91;4993484;28;20309;-67
2022/10/13 08:33:42;;;;;;;22.43;15.67;;;;;;;11.46;100.00;100490.28;5000996;28;20179;-68
2022/10/13 08:36:07;;;;;;;18.97;15.23;;;;;;;11.38;100.00;100484.72;5007514;28;20666;-67
2022/10/13 08:38:34;;;;;;;24.97;15.97;;;;;;;11.30;100.00;100492.84;5000790;28;20183;-67
2022/10/13 08:41:00;;;;;;;23.13;15.77;;;;;;;11.30;100.00;100492.84;4996377;28;20681;-67
2022/10/13 08:43:26;;;;;;;21.03;16.30;;;;;;;11.15;100.00;100504.75;4994860;28;20194;-69
2022/10/13 08:45:58;;;;;;;22.43;17.57;;;;;;;11.50;100.00;100494.38;5007498;28;20258;-67
2022/10/13 08:48:28;;;;;;;21.73;17.00;;;;;;;11.58;100.00;100499.13;5011882;28;20581;-67
2022/10/13 08:50:56;;;;;;;25.60;16.37;;;;;;;11.68;100.00;100507.22;5000710;28;20231;-67
2022/10/13 08:53:29;;;;;;;22.87;15.70;;;;;;;11.74;100.00;100497.41;5004898;28;20672;-67
2022/10/13 08:55:58;;;;;;;20.33;15.53;;;;;;;11.89;100.00;100500.09;4995587;28;20190;-66
2022/10/13 08:58:27;;;;;;;19.67;14.50;;;;;;;11.96;100.00;100506.59;4999005;28;20183;-68
2022/10/13 09:01:07;;;;;;;20.20;16.17;;;;;;;11.94;100.00;100503.25;4998102;28;20230;-66
2022/10/13 09:03:44;;;;;;;18.60;15.97;;;;;;;11.97;100.00;100504.84;5008978;28;20236;-66
2022/10/13 09:06:15;;;;;;;23.47;15.00;;;;;;;11.82;100.00;100497.00;5007964;28;20281;-65
2022/10/13 09:09:05;;;;;;;23.83;15.93;;;;;;;11.75;100.00;100506.78;5004789;28;20674;-67
2022/10/13 09:11:33;;;;;;;19.77;14.90;;;;;;;11.75;100.00;100506.78;4995233;28;20289;-69
2022/10/13 09:14:03;;;;;;;22.50;16.07;;;;;;;11.78;100.00;100503.22;4999653;28;20701;-67
2022/10/13 09:16:34;;;;;;;25.13;16.10;;;;;;;11.61;100.00;100493.81;5004135;28;20202;-68
2022/10/13 09:19:24;;;;;;;19.80;14.90;;;;;;;11.58;100.00;100501.69;5012043;28;20182;-68
2022/10/13 09:21:53;;;;;;;21.73;15.63;;;;;;;11.85;100.00;100503.75;4993104;28;20289;-68
2022/10/13 09:24:21;;;;;;;19.00;14.87;;;;;;;11.97;100.00;100505.69;5004138;28;20199;-67
2022/10/13 09:26:49;;;;;;;23.40;16.10;;;;;;;12.07;100.00;100501.69;5011055;28;20654;-69
2022/10/13 09:29:23;;;;;;;25.20;15.50;;;;;;;12.23;100.00;100506.00;5012885;28;20181;-65
2022/10/13 09:31:48;;;;;;;21.53;15.43;;;;;;;12.38;100.00;100507.75;5016211;28;20684;-68
2022/10/13 09:34:22;;;;;;;17.67;13.80;;;;;;;12.35;100.00;100514.81;5013946;28;20286;-66
2022/10/13 09:36:58;;;;;;;25.67;15.13;;;;;;;12.23;100.00;100518.91;5004671;28;20174;-68
2022/10/13 09:39:24;;;;;;;17.10;14.93;;;;;;;12.23;100.00;100522.31;5011548;28;20612;-66
2022/10/13 09:41:49;;;;;;;22.57;15.67;;;;;;;12.09;100.00;100522.22;5004679;28;20316;-69
2022/10/13 09:44:27;;;;;;;18.37;15.43;;;;;;;11.86;100.00;100513.97;5013796;28;20193;-68
2022/10/13 09:46:59;;;;;;;24.33;15.70;;;;;;;11.96;100.00;100522.06;5004347;28;20218;-69
2022/10/13 09:49:33;;;;;;;21.00;15.57;;;;;;;11.75;100.00;100509.38;5007450;28;20630;-69
2022/10/13 09:52:13;;;;;;;20.90;16.27;;;;;;;11.71;100.00;100495.00;4993301;28;21134;-68
2022/10/13 09:54:39;;;;;;;21.60;16.30;;;;;;;11.18;100.00;100496.88;4992672;28;20203;-68
2022/10/13 09:57:20;;;;;;;18.90;15.70;;;;;;;11.39;100.00;100502.66;4993144;28;20202;-67
2022/10/13 09:59:51;;;;;;;28.87;16.43;;;;;;;11.59;100.00;100498.22;5009472;28;20178;-67
2022/10/13 10:02:31;;;;;;;20.47;15.37;;;;;;;11.71;100.00;100491.56;5000114;28;20225;-67
2022/10/13 10:05:04;;;;;;;23.77;15.93;;;;;;;11.73;100.00;100480.28;5009645;28;20170;-67
2022/10/13 10:07:31;;;;;;;22.40;16.37;;;;;;;11.65;100.00;100479.00;5011066;28;20203;-66
2022/10/13 10:10:03;;;;;;;32.40;17.33;;;;;;;11.83;100.00;100475.44;5010724;28;20186;-67
2022/10/13 10:12:30;;;;;;;25.43;17.10;;;;;;;11.77;100.00;100465.47;5000939;28;20226;-69
2022/10/13 10:14:56;;;;;;;24.17;17.87;;;;;;;12.08;100.00;100464.69;5010079;28;20272;-65
2022/10/13 10:17:36;;;;;;;22.73;17.07;;;;;;;12.66;100.00;100462.31;5011289;28;20190;-62
2022/10/13 10:20:24;;;;;;;27.03;17.57;;;;;;;13.42;100.00;100454.50;5010552;28;20591;-64
2022/10/13 10:23:02;;;;;;;25.17;19.37;;;;;;;13.91;100.00;100456.63;4989409;28;20218;-67
2022/10/13 10:25:43;;;;;;;35.80;22.30;;;;;;;13.19;100.00;100465.25;4993201;28;20270;-68
2022/10/13 10:28:30;;;;;;;29.87;22.27;;;;;;;13.50;100.00;100463.44;5002585;28;20202;-67
2022/10/13 10:31:23;;;;;;;26.63;20.73;;;;;;;14.07;100.00;100460.84;4990899;28;20222;-68
2022/10/13 10:34:07;;;;;;;27.27;21.50;;;;;;;13.82;100.00;100445.09;5009660;28;20261;-67
2022/10/13 10:36:42;;;;;;;32.00;21.73;;;;;;;13.56;100.00;100444.16;5006589;28;20627;-67
2022/10/13 10:39:30;;;;;;;29.30;21.03;;;;;;;13.92;100.00;100447.09;5008945;28;20581;-68
2022/10/13 10:42:12;;;;;;;27.60;21.73;;;;;;;14.07;100.00;100458.25;4993565;28;20693;-66
2022/10/13 10:44:41;;;;;;;29.53;20.30;;;;;;;13.96;100.00;100456.34;5014627;28;20182;-70
2022/10/13 10:47:26;;;;;;;29.87;22.07;;;;;;;14.10;100.00;100458.88;5009794;28;20237;-69
2022/10/13 10:50:04;;;;;;;31.67;21.87;;;;;;;13.91;100.00;100450.63;5014110;28;20194;-70
2022/10/13 10:53:05;;;;;;;28.10;21.73;;;;;;;13.49;100.00;100432.53;4975682;28;20219;-68
2022/10/13 10:55:52;;;;;;;30.57;22.40;;;;;;;13.60;100.00;100435.28;4938284;28;20192;-69
2022/10/13 10:58:35;;;;;;;36.20;21.07;;;;;;;14.32;100.00;100434.22;5008512;28;20190;-69
2022/10/13 11:01:30;;;;;;;28.70;21.10;;;;;;;14.39;100.00;100429.47;4996939;28;20742;-68
2022/10/13 11:04:27;;;;;;;27.90;21.07;;;;;;;14.40;100.00;100415.59;5004521;28;20931;-68
2022/10/13 11:06:53;;;;;;;25.43;20.47;;;;;;;14.38;100.00;100410.53;5013474;28;20198;-68
2022/10/13 11:09:41;;;;;;;34.70;22.27;;;;;;;13.82;100.00;100402.91;5015364;28;20187;-69
2022/10/13 11:12:19;;;;;;;29.23;20.00;;;;;;;13.30;100.00;100397.44;4989569;28;20611;-68
2022/10/13 11:15:01;;;;;;;33.23;20.87;;;;;;;13.48;100.00;100400.69;5010240;28;20174;-68
2022/10/13 11:17:26;;;;;;;33.10;21.83;;;;;;;13.63;100.00;100385.97;4990460;28;20234;-69